sensor_id;sensor_type;location;lat;lon;timestamp;pressure;altitude;pressure_sealevel;temperature;humidity
79004;BME280;68369;51.050;17.018;2023-08-06T00:03:01;99144.29;;;16.71;82.18
79004;BME280;68369;51.050;17.018;2023-08-06T00:05:49;99137.73;;;16.69;82.20
79004;BME280;68369;51.050;17.018;2023-08-06T00:08:34;99132.27;;;16.66;82.22
79004;BME280;68369;51.050;17.018;2023-08-06T00:18:09;99131.21;;;16.68;82.12
79004;BME280;68369;51.050;17.018;2023-08-06T00:20:55;99126.58;;;16.69;82.16
79004;BME280;68369;51.050;17.018;2023-08-06T00:23:41;99120.70;;;16.70;82.18
79004;BME280;68369;51.050;17.018;2023-08-06T00:29:31;99098.34;;;16.66;82.08
79004;BME280;68369;51.050;17.018;2023-08-06T00:32:17;99083.37;;;16.64;82.10
79004;BME280;68369;51.050;17.018;2023-08-06T00:35:02;99086.95;;;16.65;82.07
79004;BME280;68369;51.050;17.018;2023-08-06T00:37:52;99077.44;;;16.65;82.00
79004;BME280;68369;51.050;17.018;2023-08-06T00:40:38;99077.70;;;16.64;81.98
79004;BME280;68369;51.050;17.018;2023-08-06T00:43:23;99063.88;;;16.60;82.01
79004;BME280;68369;51.050;17.018;2023-08-06T00:46:11;99050.59;;;16.57;82.14
79004;BME280;68369;51.050;17.018;2023-08-06T00:48:58;99040.28;;;16.53;82.10
79004;BME280;68369;51.050;17.018;2023-08-06T00:51:44;99038.42;;;16.50;82.15
79004;BME280;68369;51.050;17.018;2023-08-06T00:54:33;99030.25;;;16.47;82.21
79004;BME280;68369;51.050;17.018;2023-08-06T00:57:24;99021.12;;;16.46;82.29
79004;BME280;68369;51.050;17.018;2023-08-06T01:00:14;99013.51;;;16.46;82.34
79004;BME280;68369;51.050;17.018;2023-08-06T01:03:00;99004.89;;;16.44;82.31
79004;BME280;68369;51.050;17.018;2023-08-06T01:05:47;98991.15;;;16.42;82.30
79004;BME280;68369;51.050;17.018;2023-08-06T01:14:53;98972.88;;;16.41;82.35
79004;BME280;68369;51.050;17.018;2023-08-06T01:18:03;98969.14;;;16.39;82.42
79004;BME280;68369;51.050;17.018;2023-08-06T01:20:50;98965.60;;;16.37;82.50
79004;BME280;68369;51.050;17.018;2023-08-06T01:23:36;98956.44;;;16.33;82.32
79004;BME280;68369;51.050;17.018;2023-08-06T01:26:30;98962.33;;;16.34;82.37
79004;BME280;68369;51.050;17.018;2023-08-06T01:29:37;98961.31;;;16.33;82.57
79004;BME280;68369;51.050;17.018;2023-08-06T01:32:27;98959.02;;;16.33;82.42
79004;BME280;68369;51.050;17.018;2023-08-06T01:35:19;98958.08;;;16.32;82.55
79004;BME280;68369;51.050;17.018;2023-08-06T01:38:05;98949.23;;;16.32;82.65
79004;BME280;68369;51.050;17.018;2023-08-06T01:40:51;98949.34;;;16.31;82.56
79004;BME280;68369;51.050;17.018;2023-08-06T01:43:37;98945.14;;;16.30;82.78
79004;BME280;68369;51.050;17.018;2023-08-06T01:46:22;98939.56;;;16.32;82.89
79004;BME280;68369;51.050;17.018;2023-08-06T01:49:08;98928.96;;;16.34;82.83
79004;BME280;68369;51.050;17.018;2023-08-06T01:51:54;98935.50;;;16.34;82.76
79004;BME280;68369;51.050;17.018;2023-08-06T01:54:39;98941.02;;;16.31;82.71
79004;BME280;68369;51.050;17.018;2023-08-06T01:57:25;98936.65;;;16.30;82.87
79004;BME280;68369;51.050;17.018;2023-08-06T02:00:11;98941.65;;;16.30;82.95
79004;BME280;68369;51.050;17.018;2023-08-06T02:02:59;98946.12;;;16.27;83.21
79004;BME280;68369;51.050;17.018;2023-08-06T02:05:47;98942.24;;;16.25;83.39
79004;BME280;68369;51.050;17.018;2023-08-06T02:08:32;98932.11;;;16.22;83.72
79004;BME280;68369;51.050;17.018;2023-08-06T02:11:18;98899.45;;;16.16;83.99
79004;BME280;68369;51.050;17.018;2023-08-06T02:14:04;98881.77;;;16.06;83.92
79004;BME280;68369;51.050;17.018;2023-08-06T02:16:50;98866.39;;;15.98;84.29
79004;BME280;68369;51.050;17.018;2023-08-06T02:19:35;98851.19;;;15.91;84.06
79004;BME280;68369;51.050;17.018;2023-08-06T02:22:21;98852.68;;;15.80;83.89
79004;BME280;68369;51.050;17.018;2023-08-06T02:25:08;98847.17;;;15.72;84.08
79004;BME280;68369;51.050;17.018;2023-08-06T02:27:54;98838.70;;;15.65;83.97
79004;BME280;68369;51.050;17.018;2023-08-06T02:30:39;98821.72;;;15.62;84.35
79004;BME280;68369;51.050;17.018;2023-08-06T02:33:25;98803.36;;;15.60;84.31
79004;BME280;68369;51.050;17.018;2023-08-06T02:36:11;98798.78;;;15.56;84.40
79004;BME280;68369;51.050;17.018;2023-08-06T02:38:56;98796.57;;;15.53;84.39
79004;BME280;68369;51.050;17.018;2023-08-06T02:41:44;98797.58;;;15.52;84.59
79004;BME280;68369;51.050;17.018;2023-08-06T02:44:30;98796.73;;;15.52;84.58
79004;BME280;68369;51.050;17.018;2023-08-06T02:47:16;98803.34;;;15.50;84.73
79004;BME280;68369;51.050;17.018;2023-08-06T02:50:01;98802.04;;;15.51;84.84
79004;BME280;68369;51.050;17.018;2023-08-06T02:52:47;98802.86;;;15.48;84.77
79004;BME280;68369;51.050;17.018;2023-08-06T02:55:34;98805.21;;;15.47;84.86
79004;BME280;68369;51.050;17.018;2023-08-06T02:58:20;98801.73;;;15.46;84.98
79004;BME280;68369;51.050;17.018;2023-08-06T03:01:07;98804.32;;;15.47;84.99
79004;BME280;68369;51.050;17.018;2023-08-06T03:03:53;98806.88;;;15.48;84.81
79004;BME280;68369;51.050;17.018;2023-08-06T03:06:38;98813.07;;;15.50;85.15
79004;BME280;68369;51.050;17.018;2023-08-06T03:09:23;98793.72;;;15.52;84.96
79004;BME280;68369;51.050;17.018;2023-08-06T03:12:09;98772.44;;;15.51;84.90
79004;BME280;68369;51.050;17.018;2023-08-06T03:14:54;98763.30;;;15.52;85.15
79004;BME280;68369;51.050;17.018;2023-08-06T03:17:39;98768.27;;;15.52;85.12
79004;BME280;68369;51.050;17.018;2023-08-06T03:20:25;98771.27;;;15.50;85.05
79004;BME280;68369;51.050;17.018;2023-08-06T03:23:10;98778.78;;;15.49;85.05
79004;BME280;68369;51.050;17.018;2023-08-06T03:25:56;98774.69;;;15.47;85.02
79004;BME280;68369;51.050;17.018;2023-08-06T03:28:41;98772.03;;;15.47;85.12
79004;BME280;68369;51.050;17.018;2023-08-06T03:31:27;98772.92;;;15.47;84.93
79004;BME280;68369;51.050;17.018;2023-08-06T03:34:12;98765.95;;;15.49;85.00
79004;BME280;68369;51.050;17.018;2023-08-06T03:36:57;98762.52;;;15.49;84.97
79004;BME280;68369;51.050;17.018;2023-08-06T03:39:42;98763.57;;;15.52;84.99
79004;BME280;68369;51.050;17.018;2023-08-06T03:42:27;98763.90;;;15.54;84.85
79004;BME280;68369;51.050;17.018;2023-08-06T03:45:12;98767.58;;;15.54;84.83
79004;BME280;68369;51.050;17.018;2023-08-06T03:47:58;98769.77;;;15.51;84.66
79004;BME280;68369;51.050;17.018;2023-08-06T03:57:21;98777.66;;;15.52;84.60
79004;BME280;68369;51.050;17.018;2023-08-06T04:00:09;98757.55;;;15.46;84.33
79004;BME280;68369;51.050;17.018;2023-08-06T04:02:55;98758.73;;;15.50;84.42
79004;BME280;68369;51.050;17.018;2023-08-06T04:05:41;98753.04;;;15.49;84.28
79004;BME280;68369;51.050;17.018;2023-08-06T04:08:26;98752.06;;;15.48;84.37
79004;BME280;68369;51.050;17.018;2023-08-06T04:11:12;98750.98;;;15.46;84.36
79004;BME280;68369;51.050;17.018;2023-08-06T04:13:58;98752.55;;;15.42;84.37
79004;BME280;68369;51.050;17.018;2023-08-06T04:16:44;98756.36;;;15.41;84.44
79004;BME280;68369;51.050;17.018;2023-08-06T04:19:34;98770.48;;;15.41;84.64
79004;BME280;68369;51.050;17.018;2023-08-06T04:22:21;98777.53;;;15.41;84.60
79004;BME280;68369;51.050;17.018;2023-08-06T04:25:07;98784.72;;;15.41;84.30
79004;BME280;68369;51.050;17.018;2023-08-06T04:27:55;98788.45;;;15.41;84.48
79004;BME280;68369;51.050;17.018;2023-08-06T04:30:41;98792.16;;;15.43;84.48
79004;BME280;68369;51.050;17.018;2023-08-06T04:33:27;98790.10;;;15.44;84.39
79004;BME280;68369;51.050;17.018;2023-08-06T04:42:36;98762.69;;;15.47;84.49
79004;BME280;68369;51.050;17.018;2023-08-06T04:45:30;98752.27;;;15.43;84.51
79004;BME280;68369;51.050;17.018;2023-08-06T04:48:21;98739.58;;;15.43;84.55
79004;BME280;68369;51.050;17.018;2023-08-06T04:51:10;98735.30;;;15.46;84.72
79004;BME280;68369;51.050;17.018;2023-08-06T04:53:56;98728.48;;;15.49;84.88
79004;BME280;68369;51.050;17.018;2023-08-06T04:56:42;98737.84;;;15.51;84.72
79004;BME280;68369;51.050;17.018;2023-08-06T04:59:28;98747.10;;;15.52;84.67
79004;BME280;68369;51.050;17.018;2023-08-06T05:02:13;98742.13;;;15.49;84.68
79004;BME280;68369;51.050;17.018;2023-08-06T05:04:59;98738.98;;;15.44;84.69
79004;BME280;68369;51.050;17.018;2023-08-06T05:07:50;98738.75;;;15.38;84.60
79004;BME280;68369;51.050;17.018;2023-08-06T05:10:37;98727.67;;;15.34;84.70
79004;BME280;68369;51.050;17.018;2023-08-06T05:17:06;98719.75;;;15.32;84.97
79004;BME280;68369;51.050;17.018;2023-08-06T05:19:53;98716.47;;;15.32;84.91
79004;BME280;68369;51.050;17.018;2023-08-06T05:22:38;98712.79;;;15.29;84.75
79004;BME280;68369;51.050;17.018;2023-08-06T05:25:24;98713.95;;;15.26;84.74
79004;BME280;68369;51.050;17.018;2023-08-06T05:28:10;98710.63;;;15.23;84.82
79004;BME280;68369;51.050;17.018;2023-08-06T05:30:55;98703.63;;;15.21;84.76
79004;BME280;68369;51.050;17.018;2023-08-06T05:33:42;98699.30;;;15.20;84.93
79004;BME280;68369;51.050;17.018;2023-08-06T05:36:27;98694.91;;;15.22;84.98
79004;BME280;68369;51.050;17.018;2023-08-06T05:39:16;98704.21;;;15.22;85.12
79004;BME280;68369;51.050;17.018;2023-08-06T05:42:04;98709.15;;;15.24;85.09
79004;BME280;68369;51.050;17.018;2023-08-06T05:44:54;98704.73;;;15.24;85.16
79004;BME280;68369;51.050;17.018;2023-08-06T05:47:39;98685.35;;;15.24;85.04
79004;BME280;68369;51.050;17.018;2023-08-06T05:50:25;98664.08;;;15.23;85.08
79004;BME280;68369;51.050;17.018;2023-08-06T05:53:14;98676.70;;;15.24;85.20
79004;BME280;68369;51.050;17.018;2023-08-06T05:56:01;98691.55;;;15.22;85.13
79004;BME280;68369;51.050;17.018;2023-08-06T05:58:46;98697.85;;;15.18;85.20
79004;BME280;68369;51.050;17.018;2023-08-06T06:01:33;98699.48;;;15.18;85.46
79004;BME280;68369;51.050;17.018;2023-08-06T06:04:19;98700.99;;;15.19;85.40
79004;BME280;68369;51.050;17.018;2023-08-06T06:07:05;98698.29;;;15.21;85.68
79004;BME280;68369;51.050;17.018;2023-08-06T06:09:50;98701.33;;;15.25;85.65
79004;BME280;68369;51.050;17.018;2023-08-06T06:12:38;98704.27;;;15.23;85.55
79004;BME280;68369;51.050;17.018;2023-08-06T06:15:24;98712.57;;;15.23;85.62
79004;BME280;68369;51.050;17.018;2023-08-06T06:18:10;98721.16;;;15.22;85.44
79004;BME280;68369;51.050;17.018;2023-08-06T06:20:55;98718.27;;;15.21;85.49
79004;BME280;68369;51.050;17.018;2023-08-06T06:23:41;98716.85;;;15.21;85.44
79004;BME280;68369;51.050;17.018;2023-08-06T06:26:27;98714.56;;;15.21;85.49
79004;BME280;68369;51.050;17.018;2023-08-06T06:29:16;98712.27;;;15.21;85.60
79004;BME280;68369;51.050;17.018;2023-08-06T06:32:01;98717.83;;;15.22;85.51
79004;BME280;68369;51.050;17.018;2023-08-06T06:34:47;98727.97;;;15.20;85.56
79004;BME280;68369;51.050;17.018;2023-08-06T06:37:33;98720.79;;;15.22;85.63
79004;BME280;68369;51.050;17.018;2023-08-06T06:40:19;98708.89;;;15.23;85.72
79004;BME280;68369;51.050;17.018;2023-08-06T06:43:04;98698.91;;;15.26;85.83
79004;BME280;68369;51.050;17.018;2023-08-06T06:45:57;98693.63;;;15.29;85.72
79004;BME280;68369;51.050;17.018;2023-08-06T06:48:44;98690.23;;;15.31;85.93
79004;BME280;68369;51.050;17.018;2023-08-06T06:51:32;98681.67;;;15.32;85.86
79004;BME280;68369;51.050;17.018;2023-08-06T06:54:18;98684.20;;;15.33;85.87
79004;BME280;68369;51.050;17.018;2023-08-06T06:57:05;98680.05;;;15.34;85.93
79004;BME280;68369;51.050;17.018;2023-08-06T06:59:51;98678.01;;;15.38;86.03
79004;BME280;68369;51.050;17.018;2023-08-06T07:02:37;98671.77;;;15.40;85.91
79004;BME280;68369;51.050;17.018;2023-08-06T07:05:24;98662.73;;;15.43;85.80
79004;BME280;68369;51.050;17.018;2023-08-06T07:08:10;98664.52;;;15.44;85.63
79004;BME280;68369;51.050;17.018;2023-08-06T07:11:03;98668.78;;;15.46;85.52
79004;BME280;68369;51.050;17.018;2023-08-06T07:13:55;98674.42;;;15.48;85.49
79004;BME280;68369;51.050;17.018;2023-08-06T07:16:43;98679.42;;;15.51;85.63
79004;BME280;68369;51.050;17.018;2023-08-06T07:19:29;98679.02;;;15.54;85.44
79004;BME280;68369;51.050;17.018;2023-08-06T07:22:15;98683.14;;;15.57;85.48
79004;BME280;68369;51.050;17.018;2023-08-06T07:25:01;98680.89;;;15.59;85.34
79004;BME280;68369;51.050;17.018;2023-08-06T07:27:47;98680.89;;;15.61;85.44
79004;BME280;68369;51.050;17.018;2023-08-06T07:30:33;98674.96;;;15.60;85.20
79004;BME280;68369;51.050;17.018;2023-08-06T07:33:19;98673.39;;;15.60;85.13
79004;BME280;68369;51.050;17.018;2023-08-06T07:36:14;98664.96;;;15.59;85.12
79004;BME280;68369;51.050;17.018;2023-08-06T07:39:02;98655.12;;;15.57;85.03
79004;BME280;68369;51.050;17.018;2023-08-06T07:41:53;98654.31;;;15.56;85.22
79004;BME280;68369;51.050;17.018;2023-08-06T07:44:40;98650.91;;;15.59;85.22
79004;BME280;68369;51.050;17.018;2023-08-06T07:47:28;98651.08;;;15.61;85.17
79004;BME280;68369;51.050;17.018;2023-08-06T07:50:16;98645.16;;;15.60;85.10
79004;BME280;68369;51.050;17.018;2023-08-06T07:53:01;98638.95;;;15.58;84.99
79004;BME280;68369;51.050;17.018;2023-08-06T07:55:54;98633.20;;;15.58;84.89
79004;BME280;68369;51.050;17.018;2023-08-06T07:58:41;98634.10;;;15.57;84.95
79004;BME280;68369;51.050;17.018;2023-08-06T08:01:27;98629.47;;;15.54;84.96
79004;BME280;68369;51.050;17.018;2023-08-06T08:04:12;98627.42;;;15.52;84.97
79004;BME280;68369;51.050;17.018;2023-08-06T08:07:00;98624.23;;;15.52;85.03
79004;BME280;68369;51.050;17.018;2023-08-06T08:09:45;98616.60;;;15.52;85.23
79004;BME280;68369;51.050;17.018;2023-08-06T08:12:34;98607.64;;;15.54;85.05
79004;BME280;68369;51.050;17.018;2023-08-06T08:15:20;98602.08;;;15.57;85.07
79004;BME280;68369;51.050;17.018;2023-08-06T08:18:06;98591.13;;;15.58;85.12
79004;BME280;68369;51.050;17.018;2023-08-06T08:20:53;98590.19;;;15.59;84.94
79004;BME280;68369;51.050;17.018;2023-08-06T08:23:39;98583.93;;;15.58;84.82
79004;BME280;68369;51.050;17.018;2023-08-06T08:26:30;98579.73;;;15.56;85.05
79004;BME280;68369;51.050;17.018;2023-08-06T08:29:15;98580.39;;;15.56;85.06
79004;BME280;68369;51.050;17.018;2023-08-06T08:32:01;98582.60;;;15.57;85.07
79004;BME280;68369;51.050;17.018;2023-08-06T08:34:47;98586.02;;;15.58;85.08
79004;BME280;68369;51.050;17.018;2023-08-06T08:37:36;98588.66;;;15.58;85.11
79004;BME280;68369;51.050;17.018;2023-08-06T08:40:32;98594.00;;;15.60;85.10
79004;BME280;68369;51.050;17.018;2023-08-06T08:43:22;98601.95;;;15.60;85.31
79004;BME280;68369;51.050;17.018;2023-08-06T08:46:10;98600.76;;;15.59;85.15
79004;BME280;68369;51.050;17.018;2023-08-06T08:49:00;98597.80;;;15.59;85.30
79004;BME280;68369;51.050;17.018;2023-08-06T08:51:49;98595.35;;;15.59;85.24
79004;BME280;68369;51.050;17.018;2023-08-06T08:54:43;98589.95;;;15.60;85.43
79004;BME280;68369;51.050;17.018;2023-08-06T08:57:32;98587.03;;;15.63;85.39
79004;BME280;68369;51.050;17.018;2023-08-06T09:00:18;98577.67;;;15.65;85.43
79004;BME280;68369;51.050;17.018;2023-08-06T09:03:10;98578.45;;;15.66;85.40
79004;BME280;68369;51.050;17.018;2023-08-06T09:05:58;98580.92;;;15.66;85.14
79004;BME280;68369;51.050;17.018;2023-08-06T09:09:06;98578.50;;;15.65;85.19
79004;BME280;68369;51.050;17.018;2023-08-06T09:11:59;98577.35;;;15.66;85.15
79004;BME280;68369;51.050;17.018;2023-08-06T09:14:46;98574.77;;;15.66;85.22
79004;BME280;68369;51.050;17.018;2023-08-06T09:17:32;98574.89;;;15.64;85.37
79004;BME280;68369;51.050;17.018;2023-08-06T09:20:19;98569.54;;;15.65;85.52
79004;BME280;68369;51.050;17.018;2023-08-06T09:23:09;98552.11;;;15.69;85.53
79004;BME280;68369;51.050;17.018;2023-08-06T09:25:59;98537.86;;;15.72;85.31
79004;BME280;68369;51.050;17.018;2023-08-06T09:28:49;98535.81;;;15.73;85.17
79004;BME280;68369;51.050;17.018;2023-08-06T09:31:43;98537.51;;;15.73;85.11
79004;BME280;68369;51.050;17.018;2023-08-06T09:37:39;98545.74;;;15.73;85.16
79004;BME280;68369;51.050;17.018;2023-08-06T09:40:36;98552.03;;;15.73;85.08
79004;BME280;68369;51.050;17.018;2023-08-06T09:43:23;98554.02;;;15.75;85.08
79004;BME280;68369;51.050;17.018;2023-08-06T09:52:42;98562.19;;;15.76;84.97
79004;BME280;68369;51.050;17.018;2023-08-06T09:55:28;98564.23;;;15.75;84.94
79004;BME280;68369;51.050;17.018;2023-08-06T09:58:16;98569.84;;;15.76;85.07
79004;BME280;68369;51.050;17.018;2023-08-06T10:01:02;98576.40;;;15.73;85.03
79004;BME280;68369;51.050;17.018;2023-08-06T10:03:51;98581.35;;;15.72;84.95
79004;BME280;68369;51.050;17.018;2023-08-06T10:06:41;98582.44;;;15.69;85.00
79004;BME280;68369;51.050;17.018;2023-08-06T10:09:29;98576.52;;;15.67;85.15
79004;BME280;68369;51.050;17.018;2023-08-06T10:12:16;98568.36;;;15.64;85.03
79004;BME280;68369;51.050;17.018;2023-08-06T10:15:11;98561.40;;;15.63;85.34
79004;BME280;68369;51.050;17.018;2023-08-06T10:18:01;98558.61;;;15.63;85.36
79004;BME280;68369;51.050;17.018;2023-08-06T10:20:49;98552.48;;;15.62;85.32
79004;BME280;68369;51.050;17.018;2023-08-06T10:23:41;98548.48;;;15.62;85.32
79004;BME280;68369;51.050;17.018;2023-08-06T10:26:29;98539.06;;;15.60;85.47
79004;BME280;68369;51.050;17.018;2023-08-06T10:29:36;98533.36;;;15.61;85.65
79004;BME280;68369;51.050;17.018;2023-08-06T10:32:46;98533.14;;;15.62;85.89
79004;BME280;68369;51.050;17.018;2023-08-06T10:35:38;98528.20;;;15.64;86.04
79004;BME280;68369;51.050;17.018;2023-08-06T10:38:28;98520.73;;;15.66;86.13
79004;BME280;68369;51.050;17.018;2023-08-06T10:41:29;98515.61;;;15.68;86.15
79004;BME280;68369;51.050;17.018;2023-08-06T10:44:15;98506.82;;;15.68;85.83
79004;BME280;68369;51.050;17.018;2023-08-06T10:47:25;98509.73;;;15.65;85.71
79004;BME280;68369;51.050;17.018;2023-08-06T10:50:17;98506.45;;;15.64;85.99
79004;BME280;68369;51.050;17.018;2023-08-06T10:53:05;98502.82;;;15.65;86.00
79004;BME280;68369;51.050;17.018;2023-08-06T10:55:55;98494.77;;;15.69;86.18
79004;BME280;68369;51.050;17.018;2023-08-06T10:58:43;98490.78;;;15.74;86.11
79004;BME280;68369;51.050;17.018;2023-08-06T11:01:30;98486.02;;;15.77;86.14
79004;BME280;68369;51.050;17.018;2023-08-06T11:04:25;98479.50;;;15.83;86.28
79004;BME280;68369;51.050;17.018;2023-08-06T11:07:16;98478.98;;;15.89;86.07
79004;BME280;68369;51.050;17.018;2023-08-06T11:10:10;98476.43;;;15.93;86.09
79004;BME280;68369;51.050;17.018;2023-08-06T11:13:05;98476.95;;;15.95;85.78
79004;BME280;68369;51.050;17.018;2023-08-06T11:15:57;98484.63;;;15.95;85.63
79004;BME280;68369;51.050;17.018;2023-08-06T11:18:46;98477.39;;;15.96;85.69
79004;BME280;68369;51.050;17.018;2023-08-06T11:21:34;98479.23;;;15.99;85.55
79004;BME280;68369;51.050;17.018;2023-08-06T11:24:25;98478.91;;;16.03;85.54
79004;BME280;68369;51.050;17.018;2023-08-06T11:27:15;98476.48;;;16.06;85.40
79004;BME280;68369;51.050;17.018;2023-08-06T11:30:05;98474.58;;;16.11;85.42
79004;BME280;68369;51.050;17.018;2023-08-06T11:32:56;98475.50;;;16.13;85.42
79004;BME280;68369;51.050;17.018;2023-08-06T11:35:42;98478.28;;;16.20;85.33
79004;BME280;68369;51.050;17.018;2023-08-06T11:38:28;98478.58;;;16.25;85.21
79004;BME280;68369;51.050;17.018;2023-08-06T11:41:16;98472.58;;;16.28;84.95
79004;BME280;68369;51.050;17.018;2023-08-06T11:44:10;98473.67;;;16.28;84.89
79004;BME280;68369;51.050;17.018;2023-08-06T11:47:04;98485.06;;;16.27;84.81
79004;BME280;68369;51.050;17.018;2023-08-06T11:53:14;98491.56;;;16.31;84.98
79004;BME280;68369;51.050;17.018;2023-08-06T11:56:11;98487.90;;;16.35;84.93
79004;BME280;68369;51.050;17.018;2023-08-06T11:58:57;98484.46;;;16.28;84.85
79004;BME280;68369;51.050;17.018;2023-08-06T12:01:46;98491.69;;;16.36;84.83
79004;BME280;68369;51.050;17.018;2023-08-06T12:05:04;98493.77;;;16.36;84.62
79004;BME280;68369;51.050;17.018;2023-08-06T12:08:15;98496.64;;;16.37;84.62
79004;BME280;68369;51.050;17.018;2023-08-06T12:11:03;98504.95;;;16.43;84.52
79004;BME280;68369;51.050;17.018;2023-08-06T12:13:55;98506.46;;;16.45;84.39
79004;BME280;68369;51.050;17.018;2023-08-06T12:16:43;98513.45;;;16.46;84.44
79004;BME280;68369;51.050;17.018;2023-08-06T12:19:29;98518.63;;;16.49;84.46
79004;BME280;68369;51.050;17.018;2023-08-06T12:22:17;98519.95;;;16.50;84.43
79004;BME280;68369;51.050;17.018;2023-08-06T12:25:12;98524.94;;;16.55;84.56
79004;BME280;68369;51.050;17.018;2023-08-06T12:28:04;98527.66;;;16.58;84.47
79004;BME280;68369;51.050;17.018;2023-08-06T12:30:52;98526.48;;;16.60;84.21
79004;BME280;68369;51.050;17.018;2023-08-06T12:33:41;98525.38;;;16.58;83.95
79004;BME280;68369;51.050;17.018;2023-08-06T12:36:27;98534.66;;;16.55;83.90
79004;BME280;68369;51.050;17.018;2023-08-06T12:39:13;98536.25;;;16.53;83.80
79004;BME280;68369;51.050;17.018;2023-08-06T12:42:03;98539.52;;;16.52;83.73
79004;BME280;68369;51.050;17.018;2023-08-06T12:44:55;98540.29;;;16.52;83.76
79004;BME280;68369;51.050;17.018;2023-08-06T12:47:44;98547.36;;;16.52;83.77
79004;BME280;68369;51.050;17.018;2023-08-06T12:50:30;98548.13;;;16.55;83.82
79004;BME280;68369;51.050;17.018;2023-08-06T12:53:20;98556.45;;;16.59;83.75
79004;BME280;68369;51.050;17.018;2023-08-06T12:59:36;98558.63;;;16.65;83.55
79004;BME280;68369;51.050;17.018;2023-08-06T13:02:24;98564.37;;;16.66;83.48
79004;BME280;68369;51.050;17.018;2023-08-06T13:05:31;98562.77;;;16.65;83.46
79004;BME280;68369;51.050;17.018;2023-08-06T13:08:18;98569.60;;;16.65;83.50
79004;BME280;68369;51.050;17.018;2023-08-06T13:11:08;98571.36;;;16.65;83.41
79004;BME280;68369;51.050;17.018;2023-08-06T13:14:07;98576.21;;;16.62;83.10
79004;BME280;68369;51.050;17.018;2023-08-06T13:16:53;98578.53;;;16.57;83.19
79004;BME280;68369;51.050;17.018;2023-08-06T13:19:40;98581.33;;;16.51;83.24
79004;BME280;68369;51.050;17.018;2023-08-06T13:22:37;98585.17;;;16.48;83.08
79004;BME280;68369;51.050;17.018;2023-08-06T13:25:25;98588.37;;;16.44;83.15
79004;BME280;68369;51.050;17.018;2023-08-06T13:28:11;98592.02;;;16.43;83.16
79004;BME280;68369;51.050;17.018;2023-08-06T13:31:01;98594.01;;;16.43;83.22
79004;BME280;68369;51.050;17.018;2023-08-06T13:33:51;98598.58;;;16.43;83.24
79004;BME280;68369;51.050;17.018;2023-08-06T13:36:50;98602.29;;;16.43;83.23
79004;BME280;68369;51.050;17.018;2023-08-06T13:39:42;98605.74;;;16.43;83.30
79004;BME280;68369;51.050;17.018;2023-08-06T13:42:30;98608.69;;;16.46;83.50
79004;BME280;68369;51.050;17.018;2023-08-06T13:45:23;98609.80;;;16.49;83.30
79004;BME280;68369;51.050;17.018;2023-08-06T13:48:12;98614.67;;;16.50;83.30
79004;BME280;68369;51.050;17.018;2023-08-06T13:51:00;98620.86;;;16.50;83.46
79004;BME280;68369;51.050;17.018;2023-08-06T13:53:47;98626.67;;;16.50;83.46
79004;BME280;68369;51.050;17.018;2023-08-06T13:56:36;98633.58;;;16.48;83.50
79004;BME280;68369;51.050;17.018;2023-08-06T13:59:23;98637.63;;;16.46;83.46
79004;BME280;68369;51.050;17.018;2023-08-06T14:02:11;98639.90;;;16.45;83.54
79004;BME280;68369;51.050;17.018;2023-08-06T14:05:00;98641.39;;;16.42;83.49
79004;BME280;68369;51.050;17.018;2023-08-06T14:07:46;98639.25;;;16.39;83.46
79004;BME280;68369;51.050;17.018;2023-08-06T14:10:32;98636.85;;;16.34;83.64
79004;BME280;68369;51.050;17.018;2023-08-06T14:13:22;98632.90;;;16.30;83.93
79004;BME280;68369;51.050;17.018;2023-08-06T14:16:10;98637.98;;;16.29;83.93
79004;BME280;68369;51.050;17.018;2023-08-06T14:18:58;98639.22;;;16.29;84.07
79004;BME280;68369;51.050;17.018;2023-08-06T14:21:46;98642.59;;;16.33;84.15
79004;BME280;68369;51.050;17.018;2023-08-06T14:24:38;98648.20;;;16.35;84.21
79004;BME280;68369;51.050;17.018;2023-08-06T14:27:29;98649.85;;;16.34;84.09
79004;BME280;68369;51.050;17.018;2023-08-06T14:30:15;98653.09;;;16.34;84.15
79004;BME280;68369;51.050;17.018;2023-08-06T14:33:03;98654.73;;;16.35;84.15
79004;BME280;68369;51.050;17.018;2023-08-06T14:36:31;98654.27;;;16.36;84.11
79004;BME280;68369;51.050;17.018;2023-08-06T14:39:21;98646.89;;;16.36;84.20
79004;BME280;68369;51.050;17.018;2023-08-06T14:42:08;98658.18;;;16.47;84.05
79004;BME280;68369;51.050;17.018;2023-08-06T14:44:59;98659.66;;;16.50;83.95
79004;BME280;68369;51.050;17.018;2023-08-06T14:47:50;98663.05;;;16.54;83.94
79004;BME280;68369;51.050;17.018;2023-08-06T14:50:41;98668.23;;;16.55;83.88
79004;BME280;68369;51.050;17.018;2023-08-06T14:53:30;98671.40;;;16.57;83.74
79004;BME280;68369;51.050;17.018;2023-08-06T14:56:20;98669.29;;;16.59;83.54
79004;BME280;68369;51.050;17.018;2023-08-06T14:59:06;98670.58;;;16.60;83.52
79004;BME280;68369;51.050;17.018;2023-08-06T15:01:53;98667.14;;;16.61;83.41
79004;BME280;68369;51.050;17.018;2023-08-06T15:04:41;98669.48;;;16.63;83.26
79004;BME280;68369;51.050;17.018;2023-08-06T15:07:29;98672.64;;;16.59;83.23
79004;BME280;68369;51.050;17.018;2023-08-06T15:10:20;98672.53;;;16.59;83.29
79004;BME280;68369;51.050;17.018;2023-08-06T15:13:14;98675.05;;;16.60;83.31
79004;BME280;68369;51.050;17.018;2023-08-06T15:16:07;98673.66;;;16.61;83.46
79004;BME280;68369;51.050;17.018;2023-08-06T15:18:56;98680.50;;;16.60;83.33
79004;BME280;68369;51.050;17.018;2023-08-06T15:21:46;98687.23;;;16.58;83.38
79004;BME280;68369;51.050;17.018;2023-08-06T15:24:33;98698.63;;;16.51;83.38
79004;BME280;68369;51.050;17.018;2023-08-06T15:27:26;98698.74;;;16.48;83.17
79004;BME280;68369;51.050;17.018;2023-08-06T15:30:34;98698.89;;;16.45;83.03
79004;BME280;68369;51.050;17.018;2023-08-06T15:33:23;98704.59;;;16.39;82.97